Time;durP1;ratioP1;P1;durP2;ratioP2;P2;SDS_P1;SDS_P2;PMS_P1;PMS_P2;Temp;Humidity;BMP_temperature;BMP_pressure;BME280_temperature;BME280_humidity;BME280_pressure;Samples;Min_cycle;Max_cycle;Signal;HPM_P1;HPM_P2
2022/11/14 00:01:24;;;;;;;98.75;44.38;;;;;;;5.33;94.33;101751.28;7397405;19;20019;-70
2022/11/14 00:03:55;;;;;;;96.85;41.13;;;;;;;5.34;93.78;101745.19;7396076;19;20420;-69
2022/11/14 00:06:23;;;;;;;96.60;43.58;;;;;;;5.34;94.16;101740.00;7395114;19;20015;-70
2022/11/14 00:08:52;;;;;;;94.88;43.08;;;;;;;5.34;94.06;101740.00;7396613;19;20014;-70
2022/11/14 00:11:20;;;;;;;97.57;43.10;;;;;;;5.35;93.88;101733.94;7397083;19;20023;-70
2022/11/14 00:13:49;;;;;;;99.13;44.03;;;;;;;5.35;94.17;101738.28;7396062;19;20170;-70
2022/11/14 00:16:17;;;;;;;103.57;43.45;;;;;;;5.35;94.26;101738.28;7396911;19;20022;-70
2022/11/14 00:18:46;;;;;;;95.95;42.35;;;;;;;5.35;94.10;101740.88;7396875;19;20077;-70
2022/11/14 00:21:23;;;;;;;97.28;43.33;;;;;;;5.34;94.34;101732.19;7395919;19;20548;-70
2022/11/14 00:23:58;;;;;;;96.78;43.10;;;;;;;5.35;94.42;101738.28;7396069;19;20104;-69
2022/11/14 00:26:26;;;;;;;95.13;43.38;;;;;;;5.34;94.34;101737.41;7396504;19;20023;-70
2022/11/14 00:28:56;;;;;;;94.03;41.22;;;;;;;5.34;94.29;101728.72;7396134;19;20077;-70
2022/11/14 00:31:24;;;;;;;101.78;43.90;;;;;;;5.35;94.33;101733.09;7396446;19;20077;-69
2022/11/14 00:33:53;;;;;;;91.70;42.55;;;;;;;5.35;94.34;101727.88;7394497;19;20095;-68
2022/11/14 00:36:24;;;;;;;96.93;43.67;;;;;;;5.35;94.15;101726.13;7395864;19;20370;-69
2022/11/14 00:38:54;;;;;;;101.95;44.35;;;;;;;5.36;94.15;101722.69;7396586;19;20010;-69
2022/11/14 00:41:23;;;;;;;102.65;45.05;;;;;;;5.36;94.25;101727.03;7395884;19;20021;-69
2022/11/14 00:43:51;;;;;;;100.18;42.75;;;;;;;5.35;94.20;101720.94;7395192;19;20039;-69
2022/11/14 00:46:20;;;;;;;92.38;42.65;;;;;;;5.32;94.06;101707.88;7395622;19;20078;-70
2022/11/14 00:48:48;;;;;;;97.78;43.97;;;;;;;5.36;94.31;101719.22;7395514;19;20369;-69
2022/11/14 00:51:17;;;;;;;100.55;44.00;;;;;;;5.36;94.36;101714.03;7394129;19;20083;-69
2022/11/14 00:53:48;;;;;;;98.75;41.53;;;;;;;5.37;94.48;101718.34;7394590;19;20511;-69
2022/11/14 00:56:16;;;;;;;91.18;41.20;;;;;;;5.36;94.25;101711.41;7396179;19;20082;-69
2022/11/14 00:58:45;;;;;;;91.82;42.60;;;;;;;5.37;93.99;101719.25;7394044;19;20041;-69
2022/11/14 01:01:13;;;;;;;104.57;42.95;;;;;;;5.37;94.43;101719.25;7393976;19;20023;-70
2022/11/14 01:03:42;;;;;;;101.80;43.42;;;;;;;5.38;94.04;101714.91;7394339;19;20562;-70
2022/11/14 01:06:14;;;;;;;99.50;43.95;;;;;;;5.39;94.08;101709.72;7395422;19;20026;-69
2022/11/14 01:08:43;;;;;;;101.32;44.50;;;;;;;5.39;94.30;101707.09;7394179;19;20508;-70
2022/11/14 01:11:17;;;;;;;101.78;43.05;;;;;;;5.41;94.20;101691.53;7393716;19;20089;-70
2022/11/14 01:13:45;;;;;;;101.07;42.88;;;;;;;5.41;94.20;101704.56;7393687;19;20022;-70
2022/11/14 01:16:14;;;;;;;103.05;44.08;;;;;;;5.39;94.15;101693.22;7393384;19;20078;-69
2022/11/14 01:18:43;;;;;;;104.82;44.45;;;;;;;5.43;94.05;101696.75;7395124;19;20074;-70
2022/11/14 01:21:14;;;;;;;104.18;44.67;;;;;;;5.42;94.35;101690.69;7394868;19;20035;-70
2022/11/14 01:23:43;;;;;;;100.13;43.67;;;;;;;5.44;93.99;101686.38;7393340;19;20361;-69
2022/11/14 01:26:16;;;;;;;100.18;43.05;;;;;;;5.44;93.89;101680.31;7394330;19;20085;-70
2022/11/14 01:28:44;;;;;;;104.82;45.03;;;;;;;5.45;94.05;101684.66;7395121;19;20074;-70
2022/11/14 01:31:16;;;;;;;102.03;44.42;;;;;;;5.44;94.05;101678.56;7393070;19;20036;-70
2022/11/14 01:33:45;;;;;;;104.60;44.30;;;;;;;5.46;93.88;101670.75;7392349;19;20018;-69
2022/11/14 01:36:13;;;;;;;104.97;44.42;;;;;;;5.46;94.13;101660.34;7394642;19;20083;-70
2022/11/14 01:38:42;;;;;;;97.70;42.97;;;;;;;5.46;94.20;101661.25;7394143;19;20421;-70
2022/11/14 01:41:15;;;;;;;104.50;44.83;;;;;;;5.45;94.09;101646.47;7392540;19;20078;-69
2022/11/14 01:43:44;;;;;;;96.68;42.90;;;;;;;5.47;94.01;101659.50;7393753;19;20025;-69
2022/11/14 01:46:18;;;;;;;97.15;43.75;;;;;;;5.47;93.94;101654.31;7394227;19;20078;-69
2022/11/14 01:48:51;;;;;;;99.05;44.22;;;;;;;5.47;94.00;101644.78;7394303;19;20086;-70
2022/11/14 01:51:30;;;;;;;103.65;45.60;;;;;;;5.48;93.91;101643.03;7392808;19;20091;-70
2022/11/14 01:54:02;;;;;;;102.25;44.45;;;;;;;5.48;93.95;101638.69;7391776;19;20545;-69
2022/11/14 01:56:38;;;;;;;103.10;46.15;;;;;;;5.49;94.15;101648.25;7394154;19;20078;-70
2022/11/14 01:59:09;;;;;;;91.50;43.17;;;;;;;5.49;94.49;101637.84;7393686;19;20517;-70
2022/11/14 02:01:42;;;;;;;98.63;43.72;;;;;;;5.49;94.24;101635.25;7392402;19;20078;-70
2022/11/14 02:04:11;;;;;;;102.78;47.25;;;;;;;5.49;94.28;101627.44;7391511;19;20086;-68
2022/11/14 02:06:41;;;;;;;101.70;43.50;;;;;;;5.49;94.27;101623.97;7391662;19;20078;-69
2022/11/14 02:09:10;;;;;;;104.55;44.53;;;;;;;5.49;94.48;101618.75;7394101;19;20471;-68
2022/11/14 02:11:44;;;;;;;97.35;44.22;;;;;;;5.48;94.20;101622.22;7397984;19;20035;-69
2022/11/14 02:14:13;;;;;;;87.93;41.80;;;;;;;5.48;94.43;101617.00;7399689;19;20025;-67
2022/11/14 02:16:42;;;;;;;94.57;43.08;;;;;;;5.48;93.97;101617.88;7397885;19;20423;-67
2022/11/14 02:19:11;;;;;;;94.53;44.72;;;;;;;5.48;94.33;101619.63;7400860;19;20092;-67
2022/11/14 02:21:42;;;;;;;95.78;43.08;;;;;;;5.49;93.99;101621.38;7400414;19;20471;-68
2022/11/14 02:24:12;;;;;;;96.65;43.35;;;;;;;5.49;94.23;101611.81;7398707;19;20541;-68
2022/11/14 02:26:43;;;;;;;91.60;41.70;;;;;;;5.50;93.98;101618.78;7398072;19;20032;-68
2022/11/14 02:29:13;;;;;;;90.60;41.92;;;;;;;5.51;93.85;101609.22;7400909;19;20029;-68
2022/11/14 02:31:41;;;;;;;92.75;41.65;;;;;;;5.50;94.11;101603.16;7397935;19;20019;-67
2022/11/14 02:34:09;;;;;;;98.90;42.53;;;;;;;5.51;94.13;101604.91;7398824;19;20093;-68
2022/11/14 02:36:38;;;;;;;95.38;41.72;;;;;;;5.50;94.32;101602.31;7399993;19;20545;-68
2022/11/14 02:39:09;;;;;;;92.70;41.53;;;;;;;5.48;94.23;101594.44;7400716;19;20074;-68
2022/11/14 02:41:37;;;;;;;90.40;42.13;;;;;;;5.49;93.92;101600.53;7397474;19;20545;-69
2022/11/14 02:44:06;;;;;;;97.45;43.10;;;;;;;5.48;93.83;101597.06;7398582;19;20078;-68
2022/11/14 02:46:35;;;;;;;97.53;40.80;;;;;;;5.48;93.90;101599.66;7399854;19;20014;-69
2022/11/14 02:49:03;;;;;;;87.90;42.08;;;;;;;5.49;93.83;101597.94;7399955;19;20025;-69
2022/11/14 02:51:31;;;;;;;90.63;41.28;;;;;;;5.51;93.82;101593.59;7397285;19;20026;-69
2022/11/14 02:54:00;;;;;;;89.00;41.38;;;;;;;5.50;93.79;101587.53;7398334;19;20090;-69
2022/11/14 02:56:31;;;;;;;84.15;40.50;;;;;;;5.49;93.48;101579.72;7399698;19;20077;-68
2022/11/14 02:59:00;;;;;;;90.93;39.30;;;;;;;5.49;93.91;101577.13;7399765;19;20035;-69
2022/11/14 03:01:28;;;;;;;81.53;38.97;;;;;;;5.48;93.76;101576.22;7399521;19;20023;-69
2022/11/14 03:03:57;;;;;;;85.80;38.75;;;;;;;5.47;93.62;101569.31;7397892;19;20358;-68
2022/11/14 03:06:25;;;;;;;88.05;38.95;;;;;;;5.46;93.75;101564.94;7397154;19;20090;-68
2022/11/14 03:08:53;;;;;;;83.15;38.47;;;;;;;5.46;93.53;101569.25;7399235;19;20086;-67
2022/11/14 03:11:22;;;;;;;86.60;38.95;;;;;;;5.44;93.70;101570.97;7397600;19;20070;-67
2022/11/14 03:13:53;;;;;;;92.03;39.63;;;;;;;5.48;94.72;101567.56;7397759;19;20603;-67
2022/11/14 03:16:22;;;;;;;91.75;39.50;;;;;;;5.53;94.75;101565.88;7397207;19;20077;-68
2022/11/14 03:18:50;;;;;;;85.50;39.80;;;;;;;5.58;93.91;101560.75;7399651;19;20082;-67
2022/11/14 03:21:22;;;;;;;85.72;39.70;;;;;;;5.55;93.37;101559.84;7398466;19;20081;-68
2022/11/14 03:23:51;;;;;;;84.40;39.42;;;;;;;5.52;93.53;101564.13;7397022;19;20082;-68
2022/11/14 03:26:19;;;;;;;79.05;38.55;;;;;;;5.49;93.43;101554.56;7398628;19;20022;-68
2022/11/14 03:28:48;;;;;;;78.47;38.60;;;;;;;5.48;93.30;101560.63;7398521;19;20087;-67
2022/11/14 03:31:19;;;;;;;83.35;39.38;;;;;;;5.47;93.37;101544.97;7397270;19;20026;-66
2022/11/14 03:33:47;;;;;;;78.47;38.35;;;;;;;5.46;93.14;101553.63;7396761;19;20018;-67
2022/11/14 03:36:16;;;;;;;79.97;37.83;;;;;;;5.44;93.22;101551.03;7398219;19;20442;-68
2022/11/14 03:38:45;;;;;;;74.15;37.05;;;;;;;5.42;93.30;101547.56;7398367;19;20081;-68
2022/11/14 03:41:13;;;;;;;84.65;38.50;;;;;;;5.41;92.95;101551.00;7396328;19;20086;-68
2022/11/14 03:43:42;;;;;;;81.32;38.80;;;;;;;5.38;93.22;101544.03;7397406;19;20097;-67
2022/11/14 03:46:10;;;;;;;80.22;36.70;;;;;;;5.38;93.17;101549.22;7397905;19;20028;-68
2022/11/14 03:48:41;;;;;;;84.43;39.55;;;;;;;5.37;93.16;101544.88;7397987;19;20077;-68
2022/11/14 03:51:10;;;;;;;90.90;39.50;;;;;;;5.37;93.17;101544.88;7397238;19;20089;-67
2022/11/14 03:53:39;;;;;;;87.70;39.75;;;;;;;5.37;93.02;101544.88;7395346;19;20022;-67
2022/11/14 03:56:08;;;;;;;86.05;39.00;;;;;;;5.37;93.05;101543.97;7397270;19;20081;-68
2022/11/14 03:58:36;;;;;;;91.20;40.05;;;;;;;5.35;93.36;101543.13;7397838;19;20074;-67
2022/11/14 04:01:05;;;;;;;91.15;40.20;;;;;;;5.35;93.40;101541.38;7397311;19;20090;-68
2022/11/14 04:03:33;;;;;;;85.13;39.70;;;;;;;5.34;93.29;101542.22;7396970;19;20365;-68
2022/11/14 04:06:04;;;;;;;86.63;39.92;;;;;;;5.33;93.39;101540.50;7397143;19;20035;-68
2022/11/14 04:08:33;;;;;;;89.57;39.88;;;;;;;5.32;93.40;101535.25;7397508;19;20018;-68
2022/11/14 04:11:02;;;;;;;89.30;39.70;;;;;;;5.32;93.40;101535.25;7394788;19;20077;-68
2022/11/14 04:13:30;;;;;;;94.22;40.85;;;;;;;5.30;93.33;101531.78;7394689;19;20025;-68
2022/11/14 04:15:59;;;;;;;84.38;39.65;;;;;;;5.29;93.30;101524.81;7396950;19;20019;-68
2022/11/14 04:18:28;;;;;;;89.97;38.78;;;;;;;5.27;93.10;101521.31;7395119;19;20078;-68
2022/11/14 04:20:56;;;;;;;83.53;37.75;;;;;;;5.26;93.19;101528.25;7396222;19;20438;-68
2022/11/14 04:23:27;;;;;;;85.32;39.65;;;;;;;5.24;93.18;101527.34;7394979;19;20027;-68
2022/11/14 04:25:56;;;;;;;93.63;41.28;;;;;;;5.21;93.13;101533.38;7394726;19;20424;-68
2022/11/14 04:28:24;;;;;;;82.95;36.05;;;;;;;5.21;93.24;101528.19;7396693;19;20018;-68
2022/11/14 04:30:53;;;;;;;85.68;38.72;;;;;;;5.19;93.21;101535.13;7395972;19;20093;-68
2022/11/14 04:33:21;;;;;;;85.65;38.92;;;;;;;5.16;93.08;101527.25;7393239;19;20078;-68
2022/11/14 04:35:50;;;;;;;88.40;38.08;;;;;;;5.13;93.40;101524.63;7396046;19;20070;-68
2022/11/14 04:38:18;;;;;;;83.47;38.05;;;;;;;5.11;93.24;101520.25;7395981;19;20074;-67
2022/11/14 04:40:53;;;;;;;94.75;39.00;;;;;;;5.09;93.54;101516.75;7396149;19;20082;-67
2022/11/14 04:43:22;;;;;;;92.57;39.28;;;;;;;5.07;93.45;101519.34;7395811;19;20434;-67
2022/11/14 04:45:50;;;;;;;94.82;38.28;;;;;;;5.06;93.07;101517.59;7396010;19;20086;-67
2022/11/14 04:48:19;;;;;;;94.47;42.00;;;;;;;5.04;93.29;101516.69;7395696;19;20085;-67
2022/11/14 04:50:48;;;;;;;95.38;40.78;;;;;;;5.00;93.38;101507.97;7394813;19;20425;-68
2022/11/14 04:53:16;;;;;;;96.07;40.22;;;;;;;5.01;93.49;101509.72;7393467;19;20551;-68
2022/11/14 04:55:46;;;;;;;94.18;39.70;;;;;;;4.99;93.52;101501.03;7395669;19;20015;-68
2022/11/14 04:58:17;;;;;;;96.38;41.80;;;;;;;4.97;93.44;101505.34;7395206;19;20018;-68
2022/11/14 05:00:45;;;;;;;90.10;39.92;;;;;;;4.96;93.48;101506.19;7395033;19;20414;-67
2022/11/14 05:03:14;;;;;;;98.38;41.13;;;;;;;4.94;93.82;101501.81;7394696;19;20031;-67
2022/11/14 05:05:42;;;;;;;104.90;40.53;;;;;;;4.92;93.69;101501.78;7394717;19;20428;-67
2022/11/14 05:08:11;;;;;;;100.03;41.83;;;;;;;4.89;93.82;101499.13;7395105;19;20078;-67
2022/11/14 05:10:39;;;;;;;104.88;44.17;;;;;;;4.87;93.69;101493.91;7394622;19;20031;-66
2022/11/14 05:13:08;;;;;;;93.68;40.30;;;;;;;4.85;93.81;101486.94;7392971;19;20014;-67
2022/11/14 05:15:39;;;;;;;96.90;41.88;;;;;;;4.80;94.19;101484.31;7394764;19;20022;-67
2022/11/14 05:18:07;;;;;;;99.45;42.65;;;;;;;4.75;94.24;101483.34;7395606;19;20028;-67
2022/11/14 05:20:36;;;;;;;99.22;43.00;;;;;;;4.76;93.96;101490.28;7394806;19;20031;-67
2022/11/14 05:23:04;;;;;;;94.18;40.72;;;;;;;4.75;94.07;101492.88;7392311;19;20014;-67
2022/11/14 05:25:33;;;;;;;95.25;40.75;;;;;;;4.73;94.26;101487.66;7394246;19;20018;-66
2022/11/14 05:28:01;;;;;;;103.07;43.60;;;;;;;4.70;94.42;101485.00;7394391;19;20019;-67
2022/11/14 05:30:30;;;;;;;112.28;46.22;;;;;;;4.69;94.23;101485.88;7393957;19;20481;-67
2022/11/14 05:33:01;;;;;;;106.57;44.25;;;;;;;4.65;94.52;101477.16;7393505;19;20010;-69
2022/11/14 05:35:29;;;;;;;107.95;42.83;;;;;;;4.64;94.24;101472.81;7395252;19;20362;-68
2022/11/14 05:37:58;;;;;;;97.57;41.72;;;;;;;4.61;94.28;101471.88;7393657;19;20085;-68
2022/11/14 05:40:26;;;;;;;104.90;42.78;;;;;;;4.60;94.39;101464.94;7393425;19;20406;-68
2022/11/14 05:42:56;;;;;;;100.68;41.85;;;;;;;4.57;94.55;101463.16;7393851;19;20035;-68
2022/11/14 05:45:25;;;;;;;102.07;42.03;;;;;;;4.52;94.33;101463.09;7398568;19;20082;-68
2022/11/14 05:47:54;;;;;;;104.75;42.85;;;;;;;4.51;94.93;101457.88;7401903;19;20018;-68
2022/11/14 05:50:25;;;;;;;106.57;44.60;;;;;;;4.47;94.86;101445.69;7398944;19;20018;-68
2022/11/14 05:52:54;;;;;;;107.78;43.13;;;;;;;4.46;95.03;101456.94;7399069;19;20031;-68
2022/11/14 05:55:22;;;;;;;107.97;42.63;;;;;;;4.42;95.24;101461.22;7401753;19;20023;-68
2022/11/14 05:57:50;;;;;;;101.72;42.58;;;;;;;4.40;95.01;101453.41;7401025;19;20036;-68
2022/11/14 06:00:19;;;;;;;104.05;41.70;;;;;;;4.38;94.99;101454.22;7401610;19;20085;-67
2022/11/14 06:02:48;;;;;;;103.55;42.47;;;;;;;4.37;95.28;101447.28;7400245;19;20031;-67
2022/11/14 06:05:16;;;;;;;109.28;45.45;;;;;;;4.35;94.95;101455.06;7396892;19;20027;-68
2022/11/14 06:07:48;;;;;;;101.28;42.67;;;;;;;4.34;94.99;101452.44;7399450;19;20431;-67
2022/11/14 06:10:16;;;;;;;109.00;42.72;;;;;;;4.34;95.22;101457.63;7399570;19;20379;-66
2022/11/14 06:12:45;;;;;;;92.47;39.65;;;;;;;4.34;94.86;101457.63;7397147;19;20550;-67
2022/11/14 06:15:13;;;;;;;102.93;43.05;;;;;;;4.32;94.94;101464.53;7400007;19;20018;-67
2022/11/14 06:17:41;;;;;;;108.60;44.13;;;;;;;4.32;94.90;101462.81;7399682;19;20106;-66
2022/11/14 06:20:12;;;;;;;114.32;43.85;;;;;;;4.31;95.05;101466.25;7396595;19;20147;-67
2022/11/14 06:22:47;;;;;;;111.35;42.88;;;;;;;4.32;95.27;101467.13;7397953;19;20053;-68
2022/11/14 06:25:24;;;;;;;107.15;44.20;;;;;;;4.32;95.74;101464.53;7396680;19;20070;-68
2022/11/14 06:27:53;;;;;;;107.78;41.83;;;;;;;4.33;95.51;101471.47;7400149;19;20513;-68
2022/11/14 06:30:21;;;;;;;113.10;43.15;;;;;;;4.34;95.80;101475.81;7400261;19;20031;-67
2022/11/14 06:32:50;;;;;;;111.22;44.17;;;;;;;4.36;95.54;101474.09;7396535;19;20580;-68
2022/11/14 06:35:18;;;;;;;109.32;42.47;;;;;;;4.36;95.72;101475.00;7399866;19;20035;-67
2022/11/14 06:37:47;;;;;;;119.55;46.25;;;;;;;4.38;95.82;101475.88;7397518;19;20020;-67
2022/11/14 06:40:15;;;;;;;107.28;41.70;;;;;;;4.40;95.67;101468.13;7396992;19;20037;-67
2022/11/14 06:42:46;;;;;;;114.38;44.75;;;;;;;4.42;95.77;101473.34;7396989;19;20086;-68
2022/11/14 06:45:15;;;;;;;110.68;43.08;;;;;;;4.41;96.14;101464.69;7400460;19;20094;-67
2022/11/14 06:47:44;;;;;;;121.05;43.35;;;;;;;4.43;95.88;101467.31;7399610;19;20010;-68
2022/11/14 06:50:12;;;;;;;106.35;42.13;;;;;;;4.44;96.11;101469.06;7399677;19;20035;-68
2022/11/14 06:52:40;;;;;;;103.10;42.20;;;;;;;4.46;96.04;101472.53;7397505;19;20363;-66
2022/11/14 06:55:09;;;;;;;99.93;43.03;;;;;;;4.46;95.65;101477.72;7397469;19;20414;-67
2022/11/14 06:57:38;;;;;;;105.85;41.92;;;;;;;4.47;95.72;101469.09;7399333;19;20032;-67
2022/11/14 07:00:12;;;;;;;110.72;45.28;;;;;;;4.46;95.95;101476.03;7401145;19;20060;-69
2022/11/14 07:02:41;;;;;;;108.13;42.83;;;;;;;4.48;95.98;101473.44;7399606;19;20026;-69
2022/11/14 07:05:10;;;;;;;105.28;43.00;;;;;;;4.49;95.79;101477.78;7395963;19;20475;-70
2022/11/14 07:07:38;;;;;;;100.15;39.67;;;;;;;4.49;95.95;101481.25;7398452;19;20022;-70
2022/11/14 07:10:07;;;;;;;103.03;40.92;;;;;;;4.49;96.21;101473.44;7398029;19;20489;-70
2022/11/14 07:12:36;;;;;;;108.35;40.90;;;;;;;4.51;95.90;101470.88;7396037;19;20481;-70
2022/11/14 07:15:04;;;;;;;102.63;40.78;;;;;;;4.52;96.09;101470.03;7396180;19;20018;-70
2022/11/14 07:17:36;;;;;;;106.85;42.50;;;;;;;4.53;96.06;101477.84;7398106;19;20019;-70
2022/11/14 07:20:05;;;;;;;99.10;41.35;;;;;;;4.54;96.22;101479.59;7395979;19;20032;-70
2022/11/14 07:22:39;;;;;;;103.80;42.33;;;;;;;4.56;96.14;101469.22;7394799;19;20018;-70
2022/11/14 07:25:14;;;;;;;101.65;40.42;;;;;;;4.55;95.90;101462.28;7397547;19;20015;-70
2022/11/14 07:27:42;;;;;;;102.80;41.75;;;;;;;4.61;96.24;101474.50;7398427;19;20015;-70
2022/11/14 07:30:12;;;;;;;103.05;40.72;;;;;;;4.63;96.10;101481.44;7397372;19;20026;-70
2022/11/14 07:32:43;;;;;;;105.85;41.55;;;;;;;4.65;96.17;101477.16;7396032;19;20107;-70
2022/11/14 07:35:11;;;;;;;99.22;40.08;;;;;;;4.69;96.00;101478.09;7398253;19;20039;-71
2022/11/14 07:37:40;;;;;;;97.63;40.40;;;;;;;4.70;95.90;101470.31;7397668;19;20497;-70
2022/11/14 07:40:10;;;;;;;100.88;42.30;;;;;;;4.73;95.88;101457.34;7394723;19;20447;-70
2022/11/14 07:42:38;;;;;;;97.30;39.83;;;;;;;4.75;95.92;101454.75;7394650;19;20031;-70
2022/11/14 07:45:08;;;;;;;98.53;41.42;;;;;;;4.77;96.19;101457.41;7397376;19;20022;-70
2022/11/14 07:47:36;;;;;;;95.78;39.72;;;;;;;4.78;96.01;101456.50;7397518;19;20022;-70
2022/11/14 07:50:08;;;;;;;93.85;38.88;;;;;;;4.81;96.00;101459.16;7395381;19;20019;-70
2022/11/14 07:52:37;;;;;;;101.32;42.28;;;;;;;4.82;95.79;101454.00;7395910;19;20434;-70
2022/11/14 07:55:06;;;;;;;97.03;40.58;;;;;;;4.85;95.98;101450.56;7395015;19;20022;-70
2022/11/14 07:57:34;;;;;;;102.03;40.00;;;;;;;4.87;95.76;101438.47;7398253;19;20027;-70
2022/11/14 08:00:02;;;;;;;96.93;39.92;;;;;;;4.89;95.63;101441.94;7395029;19;20027;-70
2022/11/14 08:02:31;;;;;;;92.78;39.92;;;;;;;4.90;95.99;101443.69;7396795;19;20019;-70
2022/11/14 08:05:00;;;;;;;83.60;37.15;;;;;;;4.93;95.75;101435.94;7395023;19;20035;-70
2022/11/14 08:07:31;;;;;;;87.30;37.28;;;;;;;4.94;95.84;101432.50;7396766;19;20018;-69
2022/11/14 08:09:59;;;;;;;83.75;36.00;;;;;;;4.95;95.58;101431.59;7397455;19;20078;-70
2022/11/14 08:12:28;;;;;;;91.28;39.53;;;;;;;5.00;95.91;101429.94;7394619;19;20031;-70
2022/11/14 08:14:56;;;;;;;84.80;37.72;;;;;;;5.02;95.61;101428.25;7394713;19;20035;-71
2022/11/14 08:17:25;;;;;;;89.57;38.08;;;;;;;5.05;95.40;101427.41;7396118;19;20453;-69
2022/11/14 08:19:54;;;;;;;83.88;37.15;;;;;;;5.08;95.51;101434.38;7394428;19;20026;-70
2022/11/14 08:22:23;;;;;;;86.00;38.05;;;;;;;5.12;95.25;101436.13;7394247;19;20018;-68
2022/11/14 08:24:54;;;;;;;77.75;36.15;;;;;;;5.14;95.27;101434.44;7394670;19;20018;-70
2022/11/14 08:27:22;;;;;;;73.53;34.38;;;;;;;5.16;95.27;101427.53;7396147;19;20524;-71
2022/11/14 08:29:51;;;;;;;78.18;34.97;;;;;;;5.18;95.29;101431.00;7396645;19;20078;-69
2022/11/14 08:32:19;;;;;;;76.03;34.13;;;;;;;5.20;94.91;101427.56;7394841;19;20019;-70
2022/11/14 08:34:48;;;;;;;75.57;36.58;;;;;;;5.24;94.92;101422.44;7393088;19;20028;-69
2022/11/14 08:37:16;;;;;;;75.50;35.58;;;;;;;5.26;94.86;101421.59;7394014;19;20018;-70
2022/11/14 08:39:45;;;;;;;73.70;34.83;;;;;;;5.30;94.84;101418.16;7393826;19;20426;-69
2022/11/14 08:42:16;;;;;;;75.97;34.15;;;;;;;5.34;94.68;101419.06;7395186;19;20028;-70
2022/11/14 08:44:44;;;;;;;77.35;34.92;;;;;;;5.37;94.55;101416.47;7393348;19;20489;-70
2022/11/14 08:47:13;;;;;;;75.05;34.05;;;;;;;5.41;94.38;101409.56;7394919;19;20101;-70
2022/11/14 08:49:41;;;;;;;76.88;34.08;;;;;;;5.43;94.20;101407.88;7395346;19;20022;-70
2022/11/14 08:52:10;;;;;;;75.90;36.28;;;;;;;5.46;94.03;101416.59;7393389;19;20077;-70
2022/11/14 08:54:38;;;;;;;75.20;34.65;;;;;;;5.48;94.00;101414.84;7392985;19;20081;-70
2022/11/14 08:57:07;;;;;;;71.20;34.13;;;;;;;5.51;93.95;101407.09;7394362;19;20425;-70
2022/11/14 08:59:38;;;;;;;79.95;34.88;;;;;;;5.54;93.83;101404.50;7394742;19;20035;-70
2022/11/14 09:02:06;;;;;;;74.45;36.03;;;;;;;5.57;93.83;101414.06;7395141;19;20035;-69
2022/11/14 09:04:35;;;;;;;74.47;35.42;;;;;;;5.61;93.99;101412.38;7392683;19;20375;-69
2022/11/14 09:07:03;;;;;;;70.10;33.25;;;;;;;5.66;93.87;101411.59;7394526;19;20018;-70
2022/11/14 09:09:32;;;;;;;72.18;35.13;;;;;;;5.69;93.55;101415.94;7393838;19;20533;-70
2022/11/14 09:12:00;;;;;;;74.68;34.40;;;;;;;5.74;93.71;101416.84;7393916;19;20478;-71
2022/11/14 09:14:29;;;;;;;69.45;34.30;;;;;;;5.78;93.40;101410.81;7392493;19;20018;-70
2022/11/14 09:17:00;;;;;;;70.15;31.00;;;;;;;5.82;93.38;101402.16;7394020;19;20023;-69
2022/11/14 09:19:28;;;;;;;67.78;32.53;;;;;;;5.87;93.40;101410.00;7405147;19;20039;-70
2022/11/14 09:21:57;;;;;;;80.38;36.83;;;;;;;5.91;93.18;101410.91;7408517;19;20022;-70
2022/11/14 09:24:26;;;;;;;74.05;35.13;;;;;;;5.94;93.23;101411.81;7406689;19;20477;-71
2022/11/14 09:26:54;;;;;;;69.95;32.58;;;;;;;5.99;93.10;101404.94;7407456;19;20038;-72
2022/11/14 09:29:22;;;;;;;69.53;33.38;;;;;;;6.03;92.76;101408.44;7408547;19;20427;-70
2022/11/14 09:31:53;;;;;;;69.57;33.97;;;;;;;6.08;92.90;101400.66;7408398;19;20031;-70
2022/11/14 09:34:25;;;;;;;66.63;32.88;;;;;;;6.14;92.71;101403.31;7406739;19;20029;-70
2022/11/14 09:36:53;;;;;;;61.38;31.45;;;;;;;6.19;92.43;101406.81;7404794;19;20457;-70
2022/11/14 09:39:21;;;;;;;64.35;30.75;;;;;;;6.23;92.59;101413.81;7407134;19;20022;-71
2022/11/14 09:42:04;;;;;;;59.55;30.00;;;;;;;6.26;92.27;101394.72;7407897;19;20031;-71
2022/11/14 09:44:52;;;;;;;59.90;31.50;;;;;;;6.31;92.15;101412.13;7405536;19;20027;-70
2022/11/14 09:47:23;;;;;;;77.15;39.85;;;;;;;6.34;91.86;101393.91;7406986;19;20015;-70
2022/11/14 09:49:57;;;;;;;70.82;34.95;;;;;;;6.38;91.60;101397.38;7408046;19;20035;-70
2022/11/14 09:52:32;;;;;;;62.60;31.38;;;;;;;6.43;91.77;101392.19;7407693;19;20034;-70
2022/11/14 09:55:07;;;;;;;55.22;29.27;;;;;;;6.46;91.41;101387.03;7405798;19;20023;-69
2022/11/14 09:57:36;;;;;;;57.17;30.15;;;;;;;6.48;91.30;101393.97;7410847;19;20034;-70
2022/11/14 10:00:08;;;;;;;59.63;29.88;;;;;;;6.52;90.94;101387.03;7405443;19;20031;-71
2022/11/14 10:02:47;;;;;;;55.10;29.20;;;;;;;6.57;91.02;101387.06;7407555;19;20078;-70
2022/11/14 10:05:30;;;;;;;57.25;30.58;;;;;;;6.60;90.02;101377.53;7407895;19;20018;-70
2022/11/14 10:08:20;;;;;;;53.28;28.45;;;;;;;6.64;90.29;101379.28;7407944;19;20026;-71
2022/11/14 10:10:55;;;;;;;53.20;28.95;;;;;;;6.68;89.90;101359.31;7404893;19;20506;-70
2022/11/14 10:13:32;;;;;;;;;;;;;;;6.72;89.46;101365.41;7407121;19;20015;-70
2022/11/14 10:16:32;;;;;;;52.55;26.58;;;;;;;6.77;89.63;101366.28;7406004;19;19919;-70
2022/11/14 10:19:11;;;;;;;50.03;27.27;;;;;;;6.79;89.51;101357.59;7404853;19;20074;-70
2022/11/14 10:21:53;;;;;;;50.00;28.00;;;;;;;6.82;89.43;101355.03;7404735;19;20446;-71
2022/11/14 10:24:57;;;;;;;52.65;28.33;;;;;;;6.86;88.77;101355.88;7403616;19;20010;-70
2022/11/14 10:27:31;;;;;;;51.20;28.63;;;;;;;6.91;88.92;101356.75;7404067;19;20446;-70
2022/11/14 10:30:11;;;;;;;52.17;27.53;;;;;;;6.95;88.75;101350.72;7398880;19;20031;-70
2022/11/14 10:32:59;;;;;;;47.53;25.95;;;;;;;7.01;88.84;101358.56;7399752;19;20021;-71
2022/11/14 10:35:33;;;;;;;54.53;29.52;;;;;;;7.06;88.78;101344.66;7396923;19;20489;-71
2022/11/14 10:38:10;;;;;;;48.00;28.25;;;;;;;7.10;88.54;101343.78;7399112;19;20090;-70
2022/11/14 10:40:43;;;;;;;50.40;28.15;;;;;;;7.15;88.30;101344.66;7396318;19;20489;-71
2022/11/14 10:43:22;;;;;;;49.40;27.90;;;;;;;7.21;88.19;101338.59;7396865;19;20089;-72
2022/11/14 10:45:55;;;;;;;52.63;29.13;;;;;;;7.25;87.96;101328.16;7403249;19;20087;-70
2022/11/14 10:48:32;;;;;;;48.85;28.33;;;;;;;7.31;88.03;101325.53;7398866;19;20018;-70
2022/11/14 10:51:03;;;;;;;48.72;27.65;;;;;;;7.36;87.87;101333.38;7397750;19;20028;-71
2022/11/14 10:53:49;;;;;;;53.10;29.33;;;;;;;7.41;87.20;101343.84;7398499;19;20026;-70
2022/11/14 10:56:17;;;;;;;53.72;28.52;;;;;;;7.44;87.41;101339.50;7400651;19;20010;-72
2022/11/14 10:58:46;;;;;;;49.33;27.33;;;;;;;7.49;87.17;101337.75;7399744;19;20027;-70
2022/11/14 11:01:39;;;;;;;51.50;28.42;;;;;;;7.53;86.80;101330.78;7399647;19;20031;-70
2022/11/14 11:04:21;;;;;;;48.05;26.77;;;;;;;7.60;86.80;101327.31;7397780;19;20023;-70
2022/11/14 11:06:50;;;;;;;47.20;25.20;;;;;;;7.66;86.65;101329.06;7399052;19;20030;-71
2022/11/14 11:12:06;;;;;;;46.90;27.05;;;;;;;7.74;86.28;101311.63;7398745;19;20025;-70
2022/11/14 11:14:36;;;;;;;49.83;27.85;;;;;;;7.79;86.20;101312.50;7396645;19;20045;-71
2022/11/14 11:17:23;;;;;;;47.35;28.25;;;;;;;7.86;85.71;101307.25;7400360;19;20130;-69
2022/11/14 11:19:52;;;;;;;45.72;27.27;;;;;;;7.91;85.96;101310.72;7399802;19;20045;-72
2022/11/14 11:22:29;;;;;;;48.05;28.00;;;;;;;7.94;85.57;101309.00;7395768;19;20094;-70
2022/11/14 11:25:00;;;;;;;44.97;27.33;;;;;;;7.99;85.70;101307.25;7394864;19;20018;-70
2022/11/14 11:27:30;;;;;;;46.38;27.52;;;;;;;8.04;85.48;101304.63;7396456;19;20026;-71
2022/11/14 11:30:09;;;;;;;48.90;27.70;;;;;;;8.10;85.65;101314.19;7399375;19;20023;-71
2022/11/14 11:32:38;;;;;;;47.40;26.67;;;;;;;8.15;85.25;101309.81;7395799;19;20010;-70